Time;durP1;ratioP1;P1;durP2;ratioP2;P2;SDS_P1;SDS_P2;PMS_P1;PMS_P2;Temp;Humidity;BMP_temperature;BMP_pressure;BME280_temperature;BME280_humidity;BME280_pressure;Samples;Min_cycle;Max_cycle;Signal;HPM_P1;HPM_P2
2022/08/25 00:01:36;;;;;;;67.67;7.10;;;24.80;1.00;;;;;;5051752;28;20498;-82
2022/08/25 00:04:05;;;;;;;67.87;6.57;;;24.70;1.00;;;;;;5053715;28;20400;-82
2022/08/25 00:06:31;;;;;;;69.50;7.67;;;24.70;1.00;;;;;;5053251;28;20480;-82
2022/08/25 00:09:00;;;;;;;67.80;6.13;;;24.60;1.00;;;;;;5054170;28;20398;-82
2022/08/25 00:11:30;;;;;;;68.53;6.60;;;24.60;1.00;;;;;;5053107;28;20976;-82
2022/08/25 00:14:03;;;;;;;69.53;5.63;;;24.50;1.00;;;;;;5053251;28;20390;-82
2022/08/25 00:16:31;;;;;;;68.27;6.20;;;24.50;1.00;;;;;;5053365;28;20760;-82
2022/08/25 00:19:02;;;;;;;69.97;5.63;;;24.50;1.00;;;;;;5053662;28;20924;-82
2022/08/25 00:21:30;;;;;;;66.97;5.80;;;24.40;1.00;;;;;;5035393;28;20410;-82
2022/08/25 00:23:56;;;;;;;69.57;6.63;;;24.40;1.00;;;;;;5057222;28;20432;-82
2022/08/25 00:26:22;;;;;;;68.70;5.63;;;24.40;1.00;;;;;;5036476;28;20437;-82
2022/08/25 00:28:47;;;;;;;67.90;6.20;;;24.30;1.00;;;;;;5051813;28;20509;-82
2022/08/25 00:31:16;;;;;;;67.80;7.63;;;24.40;1.00;;;;;;5048465;28;20196;-82
2022/08/25 00:33:44;;;;;;;74.53;7.13;;;24.30;1.00;;;;;;5050101;28;20168;-82
2022/08/25 00:36:11;;;;;;;69.70;7.43;;;24.30;1.00;;;;;;5032965;28;20436;-82
2022/08/25 00:38:42;;;;;;;67.17;6.60;;;24.30;1.00;;;;;;5032258;28;20452;-82
2022/08/25 00:41:10;;;;;;;67.47;6.97;;;24.20;1.00;;;;;;5050391;28;20381;-82
2022/08/25 00:43:46;;;;;;;67.93;7.00;;;24.20;1.00;;;;;;5049208;28;20501;-82
2022/08/25 00:46:26;;;;;;;72.10;7.57;;;24.20;1.00;;;;;;5049638;28;20487;-82
2022/08/25 00:49:00;;;;;;;70.97;8.20;;;24.00;1.00;;;;;;5033060;28;20425;-82
2022/08/25 00:51:45;;;;;;;71.73;6.63;;;24.00;1.00;;;;;;5050651;28;20443;-82
2022/08/25 00:54:22;;;;;;;68.50;6.20;;;23.80;1.00;;;;;;5050262;28;20435;-82
2022/08/25 00:56:50;;;;;;;69.70;6.80;;;23.90;1.00;;;;;;5050007;28;20416;-82
2022/08/25 00:59:18;;;;;;;68.20;6.33;;;24.00;1.00;;;;;;5049235;28;20498;-82
2022/08/25 01:01:44;;;;;;;68.87;6.43;;;24.00;1.00;;;;;;5032515;28;20421;-83
2022/08/25 01:04:10;;;;;;;67.20;6.53;;;24.10;1.00;;;;;;5049937;28;20495;-82
2022/08/25 01:06:39;;;;;;;68.10;7.17;;;24.10;1.00;;;;;;5049713;28;20191;-82
2022/08/25 01:09:06;;;;;;;68.87;6.07;;;24.10;1.00;;;;;;5049471;28;20179;-82
2022/08/25 01:11:33;;;;;;;69.57;6.47;;;24.10;1.00;;;;;;5032891;28;20992;-82
2022/08/25 01:14:05;;;;;;;73.17;7.80;;;24.10;1.00;;;;;;5031007;28;20510;-82
2022/08/25 01:16:35;;;;;;;66.50;6.40;;;24.00;1.00;;;;;;5047821;28;20520;-82
2022/08/25 01:19:02;;;;;;;69.87;6.07;;;24.10;1.00;;;;;;5049700;28;20547;-82
2022/08/25 01:21:35;;;;;;;69.47;6.60;;;24.00;1.00;;;;;;5032130;28;20408;-82
2022/08/25 01:24:02;;;;;;;69.00;5.63;;;24.00;1.00;;;;;;5050159;28;20395;-82
2022/08/25 01:26:33;;;;;;;70.10;5.70;;;23.90;1.00;;;;;;5049313;28;20471;-82
2022/08/25 01:29:20;;;;;;;67.47;5.23;;;23.90;1.00;;;;;;5050570;28;20389;-82
2022/08/25 01:31:47;;;;;;;68.97;5.63;;;23.90;1.00;;;;;;5032339;28;20448;-82
2022/08/25 01:34:13;;;;;;;68.37;6.17;;;23.80;1.00;;;;;;5049952;28;20433;-82
2022/08/25 01:36:42;;;;;;;67.57;5.60;;;23.80;1.00;;;;;;5049200;28;20433;-82
2022/08/25 01:39:08;;;;;;;68.37;5.20;;;23.80;1.00;;;;;;5049543;28;20470;-82
2022/08/25 01:41:33;;;;;;;70.23;4.60;;;23.70;1.00;;;;;;5049239;28;20415;-82
2022/08/25 01:44:01;;;;;;;74.83;5.77;;;23.70;1.00;;;;;;5049375;28;20225;-82
2022/08/25 01:46:26;;;;;;;67.50;4.63;;;23.70;1.00;;;;;;5049569;28;20196;-82
2022/08/25 01:48:53;;;;;;;72.13;5.07;;;23.70;1.00;;;;;;5049236;28;20412;-82
2022/08/25 01:51:22;;;;;;;66.97;4.40;;;23.60;1.00;;;;;;5048745;28;20193;-84
2022/08/25 01:53:49;;;;;;;68.10;4.30;;;23.60;1.00;;;;;;5031455;28;20440;-82
2022/08/25 01:56:15;;;;;;;68.37;4.60;;;23.60;1.00;;;;;;5049199;28;20431;-82
2022/08/25 01:58:44;;;;;;;69.33;5.00;;;23.50;1.00;;;;;;5049428;28;20408;-82
2022/08/25 02:01:16;;;;;;;67.00;4.83;;;23.40;1.00;;;;;;5048617;28;20417;-82
2022/08/25 02:03:44;;;;;;;66.70;3.70;;;23.40;1.00;;;;;;5048882;28;20390;-82
2022/08/25 02:06:21;;;;;;;66.03;3.67;;;23.40;1.00;;;;;;5030491;28;20479;-82
2022/08/25 02:08:53;;;;;;;67.53;4.43;;;23.40;1.00;;;;;;5031710;28;20411;-82
2022/08/25 02:11:19;;;;;;;65.90;3.40;;;23.30;1.00;;;;;;5301911;22;20482;-83
2022/08/25 02:13:44;;;;;;;68.90;5.50;;;23.30;1.00;;;;;;5194698;22;20511;-83
2022/08/25 02:16:16;;;;;;;67.40;4.53;;;23.20;1.00;;;;;;5090023;28;20184;-83
2022/08/25 02:18:42;;;;;;;68.40;4.57;;;23.20;1.00;;;;;;5073380;28;20587;-82
2022/08/25 02:21:12;;;;;;;68.50;4.07;;;23.10;1.00;;;;;;5090531;28;20410;-82
2022/08/25 02:23:38;;;;;;;67.60;4.63;;;23.10;1.00;;;;;;5090677;28;20556;-82
2022/08/25 02:26:04;;;;;;;67.27;4.63;;;23.00;1.00;;;;;;5090625;28;20466;-82
2022/08/25 02:28:30;;;;;;;67.50;4.80;;;23.00;1.00;;;;;;5072492;28;20411;-82
2022/08/25 02:30:56;;;;;;;74.47;5.00;;;22.90;1.00;;;;;;5090843;28;20446;-82
2022/08/25 02:33:21;;;;;;;69.77;4.50;;;22.90;1.00;;;;;;5090449;28;20237;-82
2022/08/25 02:35:47;;;;;;;66.97;4.90;;;22.80;1.00;;;;;;5090444;28;20190;-82
2022/08/25 02:38:13;;;;;;;67.13;5.00;;;22.80;1.00;;;;;;5090426;28;20183;-82
2022/08/25 02:40:42;;;;;;;66.80;4.87;;;22.70;1.00;;;;;;5089967;28;20211;-82
2022/08/25 02:43:11;;;;;;;66.80;5.07;;;22.70;1.00;;;;;;5090421;28;20172;-82
2022/08/25 02:45:37;;;;;;;67.27;5.00;;;22.70;1.00;;;;;;5072819;28;20413;-82
2022/08/25 02:48:02;;;;;;;67.90;4.60;;;22.60;1.00;;;;;;5090595;28;20422;-82
2022/08/25 02:50:29;;;;;;;67.67;4.80;;;22.60;1.00;;;;;;5071785;28;20172;-83
2022/08/25 02:52:54;;;;;;;71.37;5.53;;;22.60;1.00;;;;;;5089340;28;20224;-83
2022/08/25 02:55:23;;;;;;;67.07;4.90;;;22.60;1.00;;;;;;5090213;28;20398;-82
2022/08/25 02:57:49;;;;;;;68.07;5.03;;;22.60;1.00;;;;;;5071633;28;20695;-82
2022/08/25 03:00:16;;;;;;;67.57;4.37;;;22.50;1.00;;;;;;5089490;28;20462;-83
2022/08/25 03:02:42;;;;;;;67.97;4.93;;;22.40;1.00;;;;;;5090024;28;20160;-83
2022/08/25 03:05:10;;;;;;;69.50;5.80;;;22.40;1.00;;;;;;5072678;28;20405;-83
2022/08/25 03:07:37;;;;;;;66.90;4.70;;;22.40;1.00;;;;;;5072745;28;20468;-82
2022/08/25 03:10:12;;;;;;;68.03;5.47;;;22.30;1.00;;;;;;5089420;28;20398;-83
2022/08/25 03:12:41;;;;;;;68.47;5.10;;;22.30;1.00;;;;;;5089699;28;20829;-82
2022/08/25 03:15:15;;;;;;;69.80;4.63;;;22.30;1.00;;;;;;5071670;28;20407;-82
2022/08/25 03:17:41;;;;;;;68.20;5.07;;;22.20;1.00;;;;;;5072333;28;20473;-82
2022/08/25 03:20:08;;;;;;;68.47;5.67;;;22.20;1.00;;;;;;5090164;28;20402;-82
2022/08/25 03:22:33;;;;;;;68.57;5.77;;;22.20;1.00;;;;;;5090167;28;20398;-82
2022/08/25 03:26:52;;;;;;;68.23;5.03;;;22.20;1.00;;;;;;5090109;28;20426;-82
2022/08/25 03:27:45;;;;;;;70.70;5.83;;;22.10;1.00;;;;;;5089458;28;20223;-84
2022/08/25 03:30:12;;;;;;;68.97;5.97;;;22.10;1.00;;;;;;5089526;28;20409;-83
2022/08/25 03:32:38;;;;;;;67.37;5.33;;;22.10;1.00;;;;;;5076958;28;20190;-82
2022/08/25 03:35:04;;;;;;;68.77;6.53;;;22.10;1.00;;;;;;5152530;22;20492;-83
2022/08/25 03:37:30;;;;;;;71.37;6.27;;;22.00;1.00;;;;;;5056764;28;20440;-83
2022/08/25 03:39:56;;;;;;;68.67;6.70;;;22.00;1.00;;;;;;5075648;28;20489;-83
2022/08/25 03:42:22;;;;;;;68.87;6.67;;;22.00;1.00;;;;;;5075143;28;20160;-83
2022/08/25 03:44:48;;;;;;;69.73;7.60;;;22.00;1.00;;;;;;5057293;28;20551;-83
2022/08/25 03:47:14;;;;;;;68.77;8.97;;;21.90;1.00;;;;;;5056762;28;20426;-83
2022/08/25 03:49:40;;;;;;;70.17;8.50;;;21.90;1.00;;;;;;5075016;28;20405;-83
2022/08/25 03:52:05;;;;;;;71.20;8.47;;;21.90;1.00;;;;;;5056781;28;20196;-83
2022/08/25 03:54:31;;;;;;;72.03;7.83;;;21.90;1.00;;;;;;5057281;28;20750;-83
2022/08/25 03:56:57;;;;;;;69.57;9.80;;;21.80;1.00;;;;;;5074856;28;20180;-83
2022/08/25 03:59:22;;;;;;;70.23;10.57;;;21.90;1.00;;;;;;5075256;28;20515;-83
2022/08/25 04:01:49;;;;;;;71.80;10.90;;;21.80;1.00;;;;;;5056897;28;20199;-83
2022/08/25 04:04:15;;;;;;;70.17;11.47;;;21.80;1.00;;;;;;5075375;28;20658;-83
2022/08/25 04:06:42;;;;;;;70.37;12.53;;;21.80;1.00;;;;;;5078695;28;20421;-83
2022/08/25 04:09:09;;;;;;;69.80;11.50;;;21.70;1.00;;;;;;5060309;28;20414;-83
2022/08/25 04:11:35;;;;;;;74.57;12.80;;;21.70;1.00;;;;;;5078327;28;20434;-83
2022/08/25 04:14:01;;;;;;;70.90;12.97;;;21.70;1.00;;;;;;5060525;28;20433;-83
2022/08/25 04:16:32;;;;;;;70.77;13.30;;;21.70;1.00;;;;;;5059956;28;20480;-83
2022/08/25 04:19:01;;;;;;;73.27;12.00;;;21.70;1.00;;;;;;5060534;28;20398;-83
2022/08/25 04:21:27;;;;;;;68.87;12.00;;;21.70;1.00;;;;;;5078423;28;20405;-83
2022/08/25 04:23:55;;;;;;;74.10;10.27;;;21.70;1.00;;;;;;5078332;28;20402;-83
2022/08/25 04:26:31;;;;;;;70.77;9.50;;;21.70;1.00;;;;;;5078591;28;20417;-83
2022/08/25 04:28:58;;;;;;;69.60;10.47;;;21.70;1.00;;;;;;5077996;28;20393;-83
2022/08/25 04:31:25;;;;;;;71.33;10.73;;;21.60;1.00;;;;;;5078083;28;20434;-83
2022/08/25 04:33:51;;;;;;;69.50;9.10;;;21.70;1.00;;;;;;5078156;28;20398;-83
2022/08/25 04:36:18;;;;;;;70.10;9.47;;;21.60;1.00;;;;;;5077955;28;20445;-83
2022/08/25 04:38:45;;;;;;;70.13;7.73;;;21.60;1.00;;;;;;5078483;28;20235;-83
2022/08/25 04:41:12;;;;;;;70.10;8.77;;;21.60;1.00;;;;;;5059870;28;20422;-83
2022/08/25 04:43:40;;;;;;;69.13;8.03;;;21.60;1.00;;;;;;5077680;28;20501;-83
2022/08/25 04:46:09;;;;;;;69.80;8.03;;;21.60;1.00;;;;;;5077992;28;20468;-83
2022/08/25 04:48:39;;;;;;;70.00;8.30;;;21.70;1.00;;;;;;5077489;28;20429;-83
2022/08/25 04:51:07;;;;;;;70.33;8.70;;;21.70;1.00;;;;;;5077610;28;20434;-83
2022/08/25 04:53:34;;;;;;;69.50;10.10;;;21.70;1.00;;;;;;5077992;28;20497;-83
2022/08/25 04:55:59;;;;;;;71.10;9.67;;;21.70;1.00;;;;;;5077641;28;20574;-83
2022/08/25 04:58:26;;;;;;;72.87;10.20;;;21.70;1.00;;;;;;5077848;28;20401;-83
2022/08/25 05:00:52;;;;;;;70.47;9.37;;;21.70;1.00;;;;;;5077402;28;20485;-83
2022/08/25 05:03:18;;;;;;;73.70;11.50;;;21.70;1.00;;;;;;5077473;28;20834;-83
2022/08/25 05:05:43;;;;;;;70.97;11.83;;;21.70;1.00;;;;;;5059650;28;20488;-83
2022/08/25 05:08:09;;;;;;;71.93;12.13;;;21.70;1.00;;;;;;5077901;28;20180;-83
2022/08/25 05:10:39;;;;;;;71.27;12.73;;;21.60;1.00;;;;;;5077680;28;20230;-83
2022/08/25 05:13:05;;;;;;;70.40;12.87;;;21.70;1.00;;;;;;5077582;28;20631;-83
2022/08/25 05:18:19;;;;;;;69.40;12.33;;;21.60;1.00;;;;;;5076817;28;20287;-83
2022/08/25 05:20:45;;;;;;;73.57;14.13;;;21.60;1.00;;;;;;5079551;28;20387;-85
2022/08/25 05:23:11;;;;;;;68.60;11.53;;;21.60;1.00;;;;;;5062228;28;20449;-84
2022/08/25 05:25:37;;;;;;;72.83;13.60;;;21.50;1.00;;;;;;5081189;28;20401;-85
2022/08/25 05:28:04;;;;;;;73.40;12.73;;;21.60;1.00;;;;;;5081359;28;20180;-85
2022/08/25 05:30:29;;;;;;;71.37;12.10;;;21.60;1.20;;;;;;5066766;28;20421;-84
2022/08/25 05:32:56;;;;;;;70.47;11.80;;;21.60;1.60;;;;;;5078613;28;20407;-84
2022/08/25 05:35:22;;;;;;;72.00;12.07;;;21.60;2.10;;;;;;5077280;28;20179;-84
2022/08/25 05:37:47;;;;;;;75.97;12.57;;;21.70;1.70;;;;;;5076557;28;20445;-84
2022/08/25 05:40:13;;;;;;;73.67;12.47;;;21.70;2.40;;;;;;5076229;28;20406;-84
2022/08/25 05:42:40;;;;;;;76.27;12.40;;;21.70;2.40;;;;;;5076273;28;20537;-84
2022/08/25 05:45:07;;;;;;;71.30;10.60;;;21.50;4.00;;;;;;5076291;28;20445;-84
2022/08/25 05:47:33;;;;;;;70.77;11.20;;;21.50;6.20;;;;;;5075830;28;20829;-84
2022/08/25 05:50:00;;;;;;;80.10;10.90;;;21.50;7.80;;;;;;5058221;28;20450;-83
2022/08/25 05:52:27;;;;;;;70.70;10.87;;;21.50;9.10;;;;;;5058104;28;20575;-80
2022/08/25 05:54:52;;;;;;;73.07;11.50;;;21.50;10.70;;;;;;5075343;28;20848;-80
2022/08/25 05:57:18;;;;;;;70.97;10.73;;;21.50;11.10;;;;;;5075204;28;20418;-80
2022/08/25 05:59:44;;;;;;;77.97;10.10;;;21.60;11.90;;;;;;5075289;28;20409;-80
2022/08/25 06:04:53;;;;;;;69.47;9.93;;;21.60;12.30;;;;;;5075485;28;20205;-80
2022/08/25 06:07:19;;;;;;;76.13;10.67;;;21.60;12.90;;;;;;5076256;28;20988;-80
2022/08/25 06:09:47;;;;;;;75.10;10.07;;;21.60;11.30;;;;;;5075950;28;20176;-80
2022/08/25 06:12:14;;;;;;;71.27;10.10;;;21.70;10.80;;;;;;5075932;28;20434;-81
2022/08/25 06:14:40;;;;;;;75.90;11.87;;;21.80;10.30;;;;;;5075725;28;20410;-80
2022/08/25 06:17:06;;;;;;;70.43;9.63;;;21.80;9.90;;;;;;5075032;28;20885;-82
2022/08/25 06:19:32;;;;;;;69.80;9.77;;;21.90;7.90;;;;;;5077073;28;20398;-82
2022/08/25 06:21:58;;;;;;;70.80;10.47;;;21.90;8.00;;;;;;5077636;28;20773;-82
2022/08/25 06:24:26;;;;;;;69.87;10.60;;;22.00;4.50;;;;;;5076751;28;20222;-82
2022/08/25 06:26:52;;;;;;;73.30;9.40;;;22.00;4.80;;;;;;5058739;28;20202;-82
2022/08/25 06:29:18;;;;;;;69.47;9.53;;;22.10;5.30;;;;;;5075589;28;20410;-82
2022/08/25 06:31:45;;;;;;;71.47;10.83;;;22.20;5.20;;;;;;5076949;28;20445;-82
2022/08/25 06:34:12;;;;;;;71.73;10.13;;;22.10;6.70;;;;;;5058924;28;20407;-82
2022/08/25 06:36:39;;;;;;;70.20;12.07;;;22.10;4.90;;;;;;5059256;28;20442;-82
2022/08/25 06:39:05;;;;;;;68.70;8.47;;;22.10;4.70;;;;;;5076910;28;20413;-82
2022/08/25 06:41:30;;;;;;;67.80;8.03;;;22.20;4.70;;;;;;5076454;28;20411;-82
2022/08/25 06:43:57;;;;;;;72.27;8.27;;;22.30;3.30;;;;;;5077055;28;20417;-82
2022/08/25 06:46:26;;;;;;;75.17;8.87;;;22.30;2.30;;;;;;5058546;28;20191;-82
2022/08/25 06:48:53;;;;;;;71.67;9.40;;;22.40;1.80;;;;;;5076696;28;20395;-82
2022/08/25 06:51:20;;;;;;;69.50;9.27;;;22.40;1.00;;;;;;5077275;28;20489;-82
2022/08/25 06:53:48;;;;;;;72.30;9.00;;;22.50;1.00;;;;;;5076666;28;20402;-82
2022/08/25 06:56:15;;;;;;;74.77;10.90;;;22.50;1.00;;;;;;5076706;28;20936;-82
2022/08/25 06:58:41;;;;;;;68.40;9.33;;;22.50;1.00;;;;;;5079410;28;20394;-82
2022/08/25 07:01:15;;;;;;;69.57;10.43;;;22.60;1.00;;;;;;5076848;28;20410;-82
2022/08/25 07:03:42;;;;;;;70.20;9.07;;;22.70;1.00;;;;;;5077187;28;20516;-82
2022/08/25 07:06:08;;;;;;;80.97;7.73;;;22.80;1.00;;;;;;5076590;28;20413;-82
2022/08/25 07:08:35;;;;;;;71.27;8.57;;;22.90;1.00;;;;;;5076691;28;20897;-82
2022/08/25 07:11:06;;;;;;;69.17;7.90;;;22.90;1.00;;;;;;5076821;28;20442;-82
2022/08/25 07:13:32;;;;;;;74.77;8.10;;;22.90;1.00;;;;;;5077217;28;20438;-82
2022/08/25 07:15:58;;;;;;;69.87;7.97;;;23.00;1.00;;;;;;5076293;28;20406;-81
2022/08/25 07:18:25;;;;;;;72.10;7.03;;;23.10;1.00;;;;;;5076951;28;20451;-82
2022/08/25 07:20:52;;;;;;;71.53;7.87;;;23.10;1.00;;;;;;5058709;28;20267;-82
2022/08/25 07:23:19;;;;;;;68.97;8.90;;;23.20;1.00;;;;;;5060719;28;20505;-82
2022/08/25 07:25:46;;;;;;;71.83;8.70;;;23.20;1.00;;;;;;5077078;28;20410;-82
2022/08/25 07:28:13;;;;;;;70.80;8.00;;;23.30;1.00;;;;;;5058483;28;20426;-82
2022/08/25 07:30:39;;;;;;;70.60;10.30;;;23.30;1.00;;;;;;5076316;28;20493;-81
2022/08/25 07:33:05;;;;;;;70.13;8.53;;;23.40;1.00;;;;;;5077508;28;20489;-82
2022/08/25 07:35:31;;;;;;;72.07;9.20;;;23.50;1.00;;;;;;5077117;28;20190;-82
2022/08/25 07:37:58;;;;;;;69.07;9.10;;;23.50;1.00;;;;;;5077447;28;20187;-82
2022/08/25 07:40:30;;;;;;;72.17;8.97;;;23.60;1.00;;;;;;5079699;28;20398;-82
2022/08/25 07:42:58;;;;;;;71.57;9.90;;;23.70;1.00;;;;;;5080715;28;20387;-82
2022/08/25 07:45:30;;;;;;;72.47;8.60;;;23.70;1.00;;;;;;5062144;28;20412;-82
2022/08/25 07:48:03;;;;;;;73.23;8.80;;;23.70;1.00;;;;;;5080518;28;20426;-82
2022/08/25 07:50:30;;;;;;;71.43;9.97;;;23.80;1.00;;;;;;5080938;28;20750;-82
2022/08/25 07:52:56;;;;;;;71.80;7.67;;;23.90;1.00;;;;;;5081420;28;20409;-82
2022/08/25 07:55:24;;;;;;;70.60;9.90;;;24.00;1.00;;;;;;5080523;28;20410;-82
2022/08/25 07:57:51;;;;;;;76.03;7.50;;;24.00;1.00;;;;;;5062801;28;20506;-82
2022/08/25 08:00:17;;;;;;;71.80;9.40;;;24.10;1.00;;;;;;5062961;28;20932;-82
2022/08/25 08:02:43;;;;;;;68.80;8.83;;;24.20;1.00;;;;;;5080111;28;20398;-82
2022/08/25 08:05:11;;;;;;;71.00;10.20;;;24.30;1.00;;;;;;5062578;28;20410;-82
2022/08/25 08:07:37;;;;;;;68.50;8.50;;;24.30;1.00;;;;;;5080461;28;20948;-82
2022/08/25 08:10:05;;;;;;;69.17;8.40;;;24.40;1.00;;;;;;5080549;28;20410;-82
2022/08/25 08:12:32;;;;;;;68.60;7.67;;;24.50;1.00;;;;;;5079925;28;20517;-82
2022/08/25 08:14:59;;;;;;;67.90;7.30;;;24.60;1.00;;;;;;5080629;28;20759;-82
2022/08/25 08:17:24;;;;;;;70.70;9.90;;;24.60;1.00;;;;;;5062580;28;20513;-82
2022/08/25 08:19:50;;;;;;;70.77;9.20;;;24.60;1.00;;;;;;5080086;28;20932;-82
2022/08/25 08:22:17;;;;;;;70.60;7.73;;;24.60;1.00;;;;;;5062122;28;20700;-82
2022/08/25 08:24:44;;;;;;;71.10;7.50;;;24.80;1.00;;;;;;5080062;28;20410;-82
2022/08/25 08:27:11;;;;;;;70.37;8.33;;;24.80;1.00;;;;;;5080409;28;20423;-82
2022/08/25 08:29:39;;;;;;;71.17;7.63;;;24.90;1.00;;;;;;5080095;28;20871;-82
2022/08/25 08:32:08;;;;;;;68.47;7.87;;;25.00;1.00;;;;;;5079742;28;20437;-82
2022/08/25 08:34:35;;;;;;;70.27;7.40;;;25.00;1.00;;;;;;5079629;28;20407;-82
2022/08/25 08:37:01;;;;;;;71.43;7.70;;;25.10;1.00;;;;;;5079678;28;20420;-82
2022/08/25 08:39:28;;;;;;;70.03;6.50;;;25.30;1.00;;;;;;5082311;28;20456;-82
2022/08/25 08:42:18;;;;;;;68.50;5.77;;;25.40;1.00;;;;;;5080601;28;20411;-82
2022/08/25 08:44:44;;;;;;;67.60;5.77;;;25.50;1.00;;;;;;5080041;28;20384;-82
2022/08/25 08:47:22;;;;;;;67.87;5.80;;;25.50;1.00;;;;;;5078805;28;20416;-81
2022/08/25 08:49:59;;;;;;;70.93;6.03;;;25.50;1.00;;;;;;5079517;28;20225;-82
2022/08/25 08:52:43;;;;;;;70.17;5.87;;;25.60;1.00;;;;;;5078136;28;20434;-81
2022/08/25 08:55:29;;;;;;;68.70;5.00;;;25.70;1.00;;;;;;5080580;28;20793;-82
2022/08/25 08:57:57;;;;;;;69.40;5.73;;;25.80;1.00;;;;;;5080084;28;20511;-82
2022/08/25 09:00:24;;;;;;;67.60;5.57;;;25.90;1.00;;;;;;5079225;28;20742;-82
2022/08/25 09:02:53;;;;;;;68.07;5.90;;;26.00;1.00;;;;;;5061372;28;20419;-82
2022/08/25 09:05:23;;;;;;;68.97;4.80;;;26.10;1.00;;;;;;5079840;28;20420;-82
2022/08/25 09:07:59;;;;;;;69.57;4.93;;;26.20;1.00;;;;;;5082588;28;20421;-82
2022/08/25 09:10:39;;;;;;;71.77;4.50;;;26.30;1.00;;;;;;5082192;28;20405;-82
2022/08/25 09:13:29;;;;;;;69.53;4.70;;;26.30;1.00;;;;;;5082296;28;20387;-82
2022/08/25 09:17:01;;;;;;;68.77;4.57;;;26.40;1.00;;;;;;5079032;28;20378;-82
2022/08/25 09:19:11;;;;;;;68.17;4.50;;;26.60;1.00;;;;;;5060277;28;20407;-82
2022/08/25 09:21:49;;;;;;;71.57;5.37;;;26.70;1.00;;;;;;5081817;28;20407;-82
2022/08/25 09:24:34;;;;;;;67.93;4.87;;;26.80;1.00;;;;;;5079172;28;20387;-82
2022/08/25 09:27:17;;;;;;;67.50;4.57;;;27.00;1.00;;;;;;5079706;28;20429;-82
2022/08/25 09:30:15;;;;;;;67.67;4.87;;;27.10;1.00;;;;;;5079798;28;20383;-82
2022/08/25 09:32:45;;;;;;;68.00;4.87;;;27.20;1.00;;;;;;5079436;28;20442;-82
2022/08/25 09:35:25;;;;;;;68.33;5.00;;;27.20;1.00;;;;;;5162481;22;20544;-81
2022/08/25 09:38:06;;;;;;;68.00;4.67;;;27.30;1.00;;;;;;5073770;28;20956;-81
2022/08/25 09:40:35;;;;;;;69.13;4.33;;;27.40;1.00;;;;;;5073201;28;20471;-82
2022/08/25 09:43:04;;;;;;;68.30;4.63;;;27.50;1.00;;;;;;5073158;28;20422;-82
2022/08/25 09:45:44;;;;;;;69.70;4.27;;;27.70;1.00;;;;;;5091248;28;20410;-81
2022/08/25 09:48:20;;;;;;;68.43;4.30;;;27.80;1.00;;;;;;5073732;28;20441;-81
2022/08/25 09:50:47;;;;;;;68.33;4.33;;;27.90;1.00;;;;;;5093294;28;20509;-81
2022/08/25 09:53:15;;;;;;;68.57;3.63;;;27.90;1.00;;;;;;5072897;28;20413;-81
2022/08/25 09:55:43;;;;;;;66.40;3.90;;;28.10;1.00;;;;;;5072850;28;20456;-81
2022/08/25 09:58:19;;;;;;;67.77;4.97;;;28.10;1.00;;;;;;5090234;28;20429;-81
2022/08/25 10:01:25;;;;;;;67.57;5.10;;;28.20;1.00;;;;;;5090305;28;20453;-81
2022/08/25 10:03:58;;;;;;;68.00;5.47;;;28.50;1.00;;;;;;5086305;28;20410;-82
2022/08/25 10:06:27;;;;;;;71.73;5.83;;;28.60;1.00;;;;;;5090049;28;20426;-81
2022/08/25 10:08:58;;;;;;;70.20;5.70;;;28.70;1.00;;;;;;5090149;28;20401;-82
2022/08/25 10:14:01;;;;;;;66.63;4.40;;;29.00;1.00;;;;;;5216770;22;20485;-83
2022/08/25 10:16:33;;;;;;;68.20;4.40;;;29.10;1.00;;;;;;5157166;22;20492;-83
2022/08/25 10:19:22;;;;;;;68.27;4.20;;;29.30;1.00;;;;;;5073235;28;20398;-83
2022/08/25 10:22:06;;;;;;;68.80;4.10;;;29.50;1.00;;;;;;5073066;28;20495;-84
2022/08/25 10:24:33;;;;;;;67.73;4.10;;;29.60;1.00;;;;;;5072785;28;20379;-84
2022/08/25 10:29:58;;;;;;;67.00;3.90;;;29.80;1.00;;;;;;5036205;28;20467;-82
2022/08/25 10:32:45;;;;;;;69.00;4.40;;;30.00;1.00;;;;;;5036971;28;20811;-82
2022/08/25 10:35:16;;;;;;;68.20;4.80;;;30.30;1.00;;;;;;5037637;28;20779;-82
2022/08/25 10:38:06;;;;;;;67.40;4.20;;;30.20;1.00;;;;;;5034712;28;20457;-82
2022/08/25 10:40:55;;;;;;;69.43;3.50;;;30.30;1.00;;;;;;5057618;28;20391;-82
2022/08/25 10:43:37;;;;;;;72.37;3.53;;;30.20;1.00;;;;;;5057791;28;20416;-82
2022/08/25 10:46:12;;;;;;;67.70;3.23;;;30.40;1.00;;;;;;5056007;28;20423;-82
2022/08/25 10:48:44;;;;;;;67.93;3.70;;;30.60;1.00;;;;;;5056570;28;20407;-82
2022/08/25 10:51:30;;;;;;;68.57;4.40;;;30.60;1.00;;;;;;5055947;28;20513;-82
2022/08/25 10:54:23;;;;;;;67.30;4.67;;;30.90;1.00;;;;;;5055938;28;20394;-82
2022/08/25 10:57:02;;;;;;;68.47;5.10;;;31.30;1.00;;;;;;5056798;28;20411;-82
2022/08/25 10:59:42;;;;;;;69.50;4.60;;;31.40;1.00;;;;;;5056817;28;20378;-82
2022/08/25 11:02:27;;;;;;;70.90;5.87;;;31.60;1.00;;;;;;5055711;28;20553;-82
2022/08/25 11:05:05;;;;;;;69.63;4.60;;;31.50;1.00;;;;;;5058072;28;20398;-82
2022/08/25 11:07:36;;;;;;;68.07;4.93;;;31.30;1.00;;;;;;5039186;28;20985;-82
2022/08/25 11:10:12;;;;;;;68.50;4.27;;;31.30;1.00;;;;;;5056894;28;20403;-82
2022/08/25 11:12:54;;;;;;;68.37;3.53;;;31.30;1.00;;;;;;5039843;28;20439;-82
2022/08/25 11:15:34;;;;;;;66.70;3.60;;;31.30;1.00;;;;;;5055755;28;20379;-82
2022/08/25 11:18:13;;;;;;;70.40;3.50;;;31.40;1.00;;;;;;5056167;28;20419;-82
2022/08/25 11:20:48;;;;;;;70.03;3.47;;;31.60;1.00;;;;;;5057113;28;20484;-82
2022/08/25 11:23:24;;;;;;;70.30;4.30;;;31.50;1.00;;;;;;5038909;28;20401;-82
2022/08/25 11:25:53;;;;;;;67.93;3.77;;;31.50;1.00;;;;;;5057579;28;20384;-82
2022/08/25 11:28:55;;;;;;;68.87;3.57;;;31.60;1.00;;;;;;5055446;28;20422;-82
2022/08/25 11:31:23;;;;;;;66.77;3.23;;;31.60;1.00;;;;;;5056650;28;20435;-82
2022/08/25 11:33:50;;;;;;;72.50;4.30;;;31.90;1.00;;;;;;5059208;28;20763;-82
2022/08/25 11:36:34;;;;;;;68.30;3.30;;;32.10;1.00;;;;;;5056293;28;20450;-82
2022/08/25 11:39:09;;;;;;;69.03;4.30;;;32.20;1.00;;;;;;5056117;28;20429;-82
2022/08/25 11:41:56;;;;;;;69.10;5.57;;;32.50;1.00;;;;;;5056870;28;20414;-82
2022/08/25 11:44:57;;;;;;;68.00;5.37;;;32.60;1.00;;;;;;5056359;28;20395;-82
2022/08/25 11:47:33;;;;;;;70.03;5.27;;;32.30;1.00;;;;;;5053633;28;20431;-82
2022/08/25 11:50:25;;;;;;;68.07;4.80;;;32.40;1.00;;;;;;5056284;28;20384;-82
2022/08/25 11:53:10;;;;;;;70.00;5.33;;;32.80;1.00;;;;;;5054214;28;20450;-82
2022/08/25 11:55:48;;;;;;;70.40;7.30;;;33.20;1.00;;;;;;5053694;28;20907;-82
2022/08/25 11:58:39;;;;;;;71.70;9.60;;;33.40;1.00;;;;;;5040646;28;20431;-83
2022/08/25 12:01:09;;;;;;;71.00;8.90;;;33.30;1.00;;;;;;5055590;28;20387;-82
2022/08/25 12:03:34;;;;;;;70.57;9.27;;;33.00;1.00;;;;;;5056085;28;20399;-82
2022/08/25 12:06:32;;;;;;;71.07;6.30;;;33.00;1.00;;;;;;5057321;28;20395;-82
2022/08/25 12:09:03;;;;;;;72.23;8.83;;;32.60;1.00;;;;;;5056096;28;20145;-82
2022/08/25 12:11:42;;;;;;;71.80;8.50;;;32.50;1.00;;;;;;5055872;28;20461;-82
2022/08/25 12:14:20;;;;;;;68.90;4.50;;;32.70;1.00;;;;;;5055282;28;20462;-82
2022/08/25 12:16:55;;;;;;;69.20;3.30;;;32.90;1.00;;;;;;5055274;28;20423;-82
2022/08/25 12:19:33;;;;;;;68.63;3.57;;;33.10;1.00;;;;;;5055432;28;20543;-82
2022/08/25 12:22:01;;;;;;;69.47;4.90;;;33.50;1.00;;;;;;5055849;28;20384;-82
2022/08/25 12:24:42;;;;;;;68.20;3.27;;;33.60;1.00;;;;;;5055705;28;20763;-82
2022/08/25 12:27:35;;;;;;;69.27;3.47;;;33.50;1.00;;;;;;5058864;28;20952;-82
2022/08/25 12:30:05;;;;;;;69.90;3.73;;;33.40;1.00;;;;;;5061009;28;20398;-82
2022/08/25 12:32:43;;;;;;;68.97;3.50;;;33.30;1.00;;;;;;5058725;28;20443;-82
2022/08/25 12:35:21;;;;;;;71.37;4.40;;;33.40;1.00;;;;;;5058904;28;20462;-82
2022/08/25 12:38:05;;;;;;;68.73;3.50;;;33.80;1.00;;;;;;5040645;28;20423;-82
2022/08/25 12:40:58;;;;;;;68.00;3.60;;;33.80;1.00;;;;;;5060053;28;20384;-82
2022/08/25 12:43:34;;;;;;;68.37;3.43;;;33.50;1.00;;;;;;5058450;28;20430;-82
2022/08/25 12:46:24;;;;;;;70.27;4.30;;;33.50;1.00;;;;;;5059161;28;20410;-82
2022/08/25 12:49:28;;;;;;;71.53;3.60;;;33.70;1.00;;;;;;5041287;28;20766;-82
2022/08/25 12:52:05;;;;;;;69.07;3.47;;;33.60;1.00;;;;;;5039797;28;20453;-82
2022/08/25 12:54:56;;;;;;;70.47;3.90;;;33.80;1.00;;;;;;5058832;28;20375;-82
2022/08/25 12:57:26;;;;;;;67.90;3.53;;;33.80;1.00;;;;;;5059143;28;20426;-82
2022/08/25 12:59:55;;;;;;;67.97;4.47;;;33.40;1.00;;;;;;5060339;28;20461;-82
2022/08/25 13:02:42;;;;;;;68.50;4.07;;;33.00;1.00;;;;;;5062338;28;20395;-82
2022/08/25 13:05:30;;;;;;;68.27;3.87;;;33.00;1.00;;;;;;5040608;28;20395;-82
2022/08/25 13:08:14;;;;;;;73.57;3.47;;;33.10;1.00;;;;;;5059388;28;20419;-82
2022/08/25 13:10:50;;;;;;;69.30;3.70;;;32.90;1.00;;;;;;5058774;28;20490;-82
2022/08/25 13:13:50;;;;;;;68.07;4.23;;;33.00;1.00;;;;;;5059583;28;20406;-82
2022/08/25 13:16:20;;;;;;;72.17;4.10;;;33.00;1.00;;;;;;5041991;28;20954;-81
2022/08/25 13:18:45;;;;;;;71.00;3.87;;;33.00;1.00;;;;;;5058692;28;20404;-81